createdAt,value
2017-04-29T00:00:35.556Z,22.88
2017-04-29T00:01:35.469Z,22.88
2017-04-29T00:02:35.470Z,22.83
2017-04-29T00:03:35.527Z,22.94
2017-04-29T00:04:35.561Z,22.85
2017-04-29T00:05:35.490Z,23.01
2017-04-29T00:06:35.489Z,22.98
2017-04-29T00:07:35.494Z,22.91
2017-04-29T00:08:35.501Z,22.94
2017-04-29T00:09:35.245Z,22.82
2017-04-29T00:10:35.512Z,22.91
2017-04-29T00:11:35.514Z,23.01
2017-04-29T00:12:35.569Z,22.98
2017-04-29T00:13:35.219Z,22.94
2017-04-29T00:14:35.268Z,23.01
2017-04-29T00:15:35.536Z,23.05
2017-04-29T00:16:35.543Z,22.98
2017-04-29T00:17:35.548Z,22.98
2017-04-29T00:18:35.292Z,22.95
2017-04-29T00:19:34.934Z,22.8
2017-04-29T00:20:35.564Z,22.98
2017-04-29T00:21:35.566Z,22.94
2017-04-29T00:22:35.573Z,22.9
2017-04-29T00:23:35.586Z,22.97
2017-04-29T00:24:35.581Z,23.01
2017-04-29T00:25:35.590Z,23
2017-04-29T00:26:35.645Z,22.97
2017-04-29T00:27:35.656Z,22.97
2017-04-29T00:28:35.609Z,22.95
2017-04-29T00:29:35.613Z,22.97
2017-04-29T00:30:35.311Z,23.04
2017-04-29T00:31:35.673Z,22.97
2017-04-29T00:32:35.361Z,22.98
2017-04-29T00:33:35.632Z,22.97
2017-04-29T00:34:35.635Z,22.97
2017-04-29T00:35:35.692Z,22.98
2017-04-29T00:36:35.645Z,22.92
2017-04-29T00:37:35.663Z,22.98
2017-04-29T00:38:35.661Z,23.01
2017-04-29T00:39:35.660Z,22.85
2017-04-29T00:40:35.367Z,22.83
2017-04-29T00:41:35.671Z,22.98
2017-04-29T00:42:35.677Z,22.97
2017-04-29T00:43:35.423Z,22.94
2017-04-29T00:44:35.378Z,22.94
2017-04-29T00:45:35.693Z,22.88
2017-04-29T00:46:35.699Z,22.9
2017-04-29T00:47:35.399Z,22.86
2017-04-29T00:48:35.406Z,22.94
2017-04-29T00:49:35.719Z,22.86
2017-04-29T00:50:35.820Z,22.92
2017-04-29T00:51:35.775Z,22.86
2017-04-29T00:52:35.737Z,22.9
2017-04-29T00:53:35.425Z,22.86
2017-04-29T00:54:35.744Z,22.94
2017-04-29T00:55:35.439Z,22.9
2017-04-29T00:56:35.444Z,22.95
2017-04-29T00:57:35.766Z,22.98
2017-04-29T00:58:35.817Z,22.94
2017-04-29T00:59:35.822Z,22.95
2017-04-29T01:00:35.463Z,22.91
2017-04-29T01:01:35.473Z,22.85
2017-04-29T01:02:35.784Z,22.86
2017-04-29T01:03:35.846Z,22.95
2017-04-29T01:04:35.534Z,22.9
2017-04-29T01:05:35.492Z,22.83
2017-04-29T01:06:35.856Z,22.98
2017-04-29T01:07:35.852Z,22.98
2017-04-29T01:08:35.508Z,22.92
2017-04-29T01:09:35.826Z,23.02
2017-04-29T01:10:35.516Z,22.98
2017-04-29T01:11:35.882Z,22.95
2017-04-29T01:12:35.835Z,23.07
2017-04-29T01:13:35.907Z,22.94
2017-04-29T01:14:35.945Z,22.94
2017-04-29T01:15:35.231Z,22.98
2017-04-29T01:16:35.647Z,23
2017-04-29T01:17:35.870Z,23.07
2017-04-29T01:18:35.610Z,23.04
2017-04-29T01:19:35.924Z,23.01
2017-04-29T01:20:35.931Z,23.02
2017-04-29T01:21:35.886Z,23
2017-04-29T01:22:35.937Z,22.98
2017-04-29T01:23:35.907Z,23.02
2017-04-29T01:24:35.904Z,23.05
2017-04-29T01:25:35.952Z,23.04
2017-04-29T01:26:35.602Z,23.02
2017-04-29T01:27:35.927Z,23.01
2017-04-29T01:28:35.615Z,22.98
2017-04-29T01:29:35.928Z,22.97
2017-04-29T01:30:35.931Z,23
2017-04-29T01:31:35.677Z,23.01
2017-04-29T01:32:35.992Z,23.02
2017-04-29T01:33:35.952Z,23
2017-04-29T01:34:35.963Z,22.95
2017-04-29T01:35:36.006Z,22.86
2017-04-29T01:36:36.000Z,22.92
2017-04-29T01:37:35.969Z,22.94
2017-04-29T01:38:35.974Z,22.9
2017-04-29T01:39:35.981Z,23
2017-04-29T01:40:35.675Z,22.83
2017-04-29T01:41:35.731Z,22.9
2017-04-29T01:42:35.999Z,22.86
2017-04-29T01:43:36.003Z,22.91
2017-04-29T01:44:36.007Z,22.9
2017-04-29T01:45:36.012Z,22.86
2017-04-29T01:46:36.069Z,22.88
2017-04-29T01:47:36.024Z,22.86
2017-04-29T01:48:36.030Z,22.92
2017-04-29T01:49:36.036Z,22.88
2017-04-29T01:50:35.728Z,22.85
2017-04-29T01:51:36.068Z,22.92
2017-04-29T01:52:36.051Z,22.97
2017-04-29T01:53:36.058Z,22.92
2017-04-29T01:54:36.060Z,22.98
2017-04-29T01:55:35.851Z,22.94
2017-04-29T01:56:36.070Z,23.07
2017-04-29T01:57:36.077Z,23.04
2017-04-29T01:58:36.106Z,22.98
2017-04-29T01:59:36.090Z,23
2017-04-29T02:00:35.781Z,23.09
2017-04-29T02:01:35.787Z,23.07
2017-04-29T02:02:36.103Z,22.95
2017-04-29T02:03:35.802Z,22.94
2017-04-29T02:04:36.163Z,22.95
2017-04-29T02:05:36.169Z,23
2017-04-29T02:06:36.124Z,22.98
2017-04-29T02:07:35.510Z,22.98
2017-04-29T02:08:36.131Z,22.95
2017-04-29T02:09:35.881Z,23.01
2017-04-29T02:10:36.193Z,22.95
2017-04-29T02:11:36.152Z,23.02
2017-04-29T02:12:36.157Z,23.01
2017-04-29T02:13:36.162Z,23.04
2017-04-29T02:14:35.857Z,23.01
2017-04-29T02:15:36.172Z,23
2017-04-29T02:16:35.868Z,23
2017-04-29T02:17:36.180Z,22.97
2017-04-29T02:18:36.194Z,23.01
2017-04-29T02:19:36.192Z,23.04
2017-04-29T02:20:36.204Z,23.04
2017-04-29T02:21:36.249Z,23.02
2017-04-29T02:22:36.259Z,23.17
2017-04-29T02:23:36.214Z,23.17
2017-04-29T02:24:36.217Z,23.16
2017-04-29T02:25:35.962Z,23.17
2017-04-29T02:26:36.229Z,23.16
2017-04-29T02:27:36.293Z,23.16
2017-04-29T02:28:35.930Z,23.19
2017-04-29T02:29:36.246Z,23.05
2017-04-29T02:30:35.997Z,23.15
2017-04-29T02:31:35.947Z,23.19
2017-04-29T02:32:36.260Z,23.15
2017-04-29T02:33:35.956Z,23.13
2017-04-29T02:34:36.270Z,23.13
2017-04-29T02:35:36.013Z,23.22
2017-04-29T02:36:36.283Z,23.17
2017-04-29T02:37:36.339Z,23.19
2017-04-29T02:38:36.295Z,23.13
2017-04-29T02:39:37.352Z,23.16
2017-04-29T02:40:36.307Z,23.05
2017-04-29T02:41:36.312Z,23.15
2017-04-29T02:42:36.055Z,23.17
2017-04-29T02:43:36.323Z,23.17
2017-04-29T02:44:36.335Z,23.16
2017-04-29T02:45:36.379Z,23.15
2017-04-29T02:46:36.387Z,23.16
2017-04-29T02:47:36.400Z,23.16
2017-04-29T02:48:36.085Z,23.22
2017-04-29T02:49:36.405Z,23.17
2017-04-29T02:50:36.045Z,23.16
2017-04-29T02:51:35.744Z,23.12
2017-04-29T02:52:36.063Z,23.17
2017-04-29T02:53:36.376Z,23.13
2017-04-29T02:54:36.382Z,23.27
2017-04-29T02:55:36.386Z,23.15
2017-04-29T02:56:36.393Z,23.25
2017-04-29T02:57:36.395Z,23.13
2017-04-29T02:58:36.408Z,23.15
2017-04-29T02:59:36.405Z,23.19
2017-04-29T03:00:36.416Z,23.16
2017-04-29T03:01:36.104Z,23.17
2017-04-29T03:02:36.425Z,23.19
2017-04-29T03:03:36.434Z,23.22
2017-04-29T03:04:36.119Z,23.13
2017-04-29T03:05:36.146Z,23.19
2017-04-29T03:06:36.136Z,23.19
2017-04-29T03:07:36.452Z,23.17
2017-04-29T03:08:36.457Z,23.16
2017-04-29T03:09:36.510Z,23.16
2017-04-29T03:10:36.467Z,23.15
2017-04-29T03:11:36.205Z,23.31
2017-04-29T03:12:36.162Z,23.25
2017-04-29T03:13:36.180Z,23.22
2017-04-29T03:14:36.488Z,23.15
2017-04-29T03:15:35.869Z,23.22
2017-04-29T03:16:36.187Z,23.19
2017-04-29T03:17:36.632Z,23.13
2017-04-29T03:18:36.508Z,23.17
2017-04-29T03:19:36.550Z,23.13
2017-04-29T03:20:36.518Z,23.17
2017-04-29T03:21:36.262Z,23.22
2017-04-29T03:22:36.579Z,23.2
2017-04-29T03:23:35.914Z,23.28
2017-04-29T03:24:36.540Z,23.28
2017-04-29T03:25:36.548Z,23.16
2017-04-29T03:26:36.552Z,23.19
2017-04-29T03:27:36.553Z,23.23
2017-04-29T03:28:36.562Z,23.22
2017-04-29T03:29:36.617Z,23.28
2017-04-29T03:30:36.268Z,23.28
2017-04-29T03:31:36.270Z,23.15
2017-04-29T03:32:36.586Z,23.13
2017-04-29T03:33:36.291Z,23.17
2017-04-29T03:34:36.289Z,23.13
2017-04-29T03:35:35.977Z,23.19
2017-04-29T03:36:36.305Z,23.2
2017-04-29T03:37:36.299Z,23.19
2017-04-29T03:38:36.621Z,23.2
2017-04-29T03:39:36.317Z,23.16
2017-04-29T03:40:36.625Z,23.22
2017-04-29T03:41:36.629Z,23.23
2017-04-29T03:42:36.636Z,23.25
2017-04-29T03:43:36.645Z,23.23
2017-04-29T03:44:36.034Z,23.25
2017-04-29T03:45:36.654Z,23.2
2017-04-29T03:46:36.659Z,23.16
2017-04-29T03:47:36.694Z,23.2
2017-04-29T03:48:36.675Z,23.28
2017-04-29T03:49:36.710Z,23.33
2017-04-29T03:50:36.366Z,23.35
2017-04-29T03:51:36.685Z,23.15
2017-04-29T03:52:36.689Z,23.19
2017-04-29T03:53:36.701Z,23.31
2017-04-29T03:54:36.698Z,23.33
2017-04-29T03:55:36.704Z,23.31
2017-04-29T03:56:36.711Z,23.27
2017-04-29T03:57:36.720Z,23.33
2017-04-29T03:58:36.462Z,23.32
2017-04-29T03:59:36.781Z,23.32
2017-04-29T04:00:36.731Z,23.35
2017-04-29T04:01:36.739Z,23.27
2017-04-29T04:02:36.797Z,23.35
2017-04-29T04:03:36.763Z,23.33
2017-04-29T04:04:36.445Z,23.33
2017-04-29T04:05:36.810Z,23.36
2017-04-29T04:06:36.764Z,23.27
2017-04-29T04:07:36.783Z,23.32
2017-04-29T04:08:36.778Z,23.36
2017-04-29T04:09:36.830Z,23.32
2017-04-29T04:10:36.786Z,23.31
2017-04-29T04:11:36.589Z,23.28
2017-04-29T04:12:36.800Z,23.32
2017-04-29T04:13:36.806Z,23.28
2017-04-29T04:14:36.810Z,23.33
2017-04-29T04:15:36.821Z,23.38
2017-04-29T04:16:36.824Z,23.33
2017-04-29T04:17:36.828Z,23.32
2017-04-29T04:18:36.882Z,23.33
2017-04-29T04:19:36.524Z,23.32
2017-04-29T04:20:36.840Z,23.16
2017-04-29T04:21:36.537Z,23.23
2017-04-29T04:22:36.896Z,23.33
2017-04-29T04:23:36.545Z,23.31
2017-04-29T04:24:36.549Z,23.28
2017-04-29T04:25:36.871Z,23.28
2017-04-29T04:26:36.875Z,23.32
2017-04-29T04:27:36.886Z,23.31
2017-04-29T04:28:36.573Z,23.33
2017-04-29T04:29:36.935Z,23.42
2017-04-29T04:30:36.892Z,23.36
2017-04-29T04:31:36.901Z,23.39
2017-04-29T04:32:36.907Z,23.4
2017-04-29T04:33:36.605Z,23.46
2017-04-29T04:34:36.604Z,23.38
2017-04-29T04:35:37.020Z,23.47
2017-04-29T04:36:36.989Z,23.42
2017-04-29T04:37:36.933Z,23.43
2017-04-29T04:38:36.629Z,23.53
2017-04-29T04:39:36.942Z,23.51
2017-04-29T04:40:36.952Z,23.55
2017-04-29T04:41:37.055Z,23.51
2017-04-29T04:42:36.959Z,23.51
2017-04-29T04:43:36.656Z,23.47
2017-04-29T04:44:37.021Z,23.53
2017-04-29T04:45:36.972Z,23.55
2017-04-29T04:46:36.683Z,23.53
2017-04-29T04:47:37.041Z,23.55
2017-04-29T04:48:36.686Z,23.53
2017-04-29T04:49:36.995Z,23.63
2017-04-29T04:50:37.003Z,23.48
2017-04-29T04:51:36.383Z,23.58
2017-04-29T04:52:37.012Z,23.5
2017-04-29T04:53:36.712Z,23.51
2017-04-29T04:54:37.025Z,23.51
2017-04-29T04:55:37.027Z,23.58
2017-04-29T04:56:37.083Z,23.54
2017-04-29T04:57:37.045Z,23.51
2017-04-29T04:58:37.098Z,23.5
2017-04-29T04:59:37.052Z,23.55
2017-04-29T05:00:36.751Z,23.58
2017-04-29T05:01:37.088Z,23.47
2017-04-29T05:02:37.068Z,23.51
2017-04-29T05:03:36.457Z,23.53
2017-04-29T05:04:37.077Z,23.55
2017-04-29T05:05:36.821Z,23.57
2017-04-29T05:06:37.089Z,23.53
2017-04-29T05:07:37.147Z,23.53
2017-04-29T05:08:36.537Z,23.53
2017-04-29T05:09:36.538Z,23.51
2017-04-29T05:10:36.798Z,23.58
2017-04-29T05:11:36.855Z,23.53
2017-04-29T05:12:37.172Z,23.55
2017-04-29T05:13:36.869Z,23.6
2017-04-29T05:14:36.870Z,23.65
2017-04-29T05:15:37.139Z,23.65
2017-04-29T05:16:37.144Z,23.61
2017-04-29T05:17:37.156Z,23.6
2017-04-29T05:18:37.161Z,23.69
2017-04-29T05:19:37.163Z,23.72
2017-04-29T05:20:36.856Z,23.72
2017-04-29T05:21:37.171Z,23.73
2017-04-29T05:22:37.175Z,23.68
2017-04-29T05:23:37.189Z,23.65
2017-04-29T05:24:36.877Z,23.54
2017-04-29T05:25:36.886Z,23.69
2017-04-29T05:26:37.203Z,23.63
2017-04-29T05:27:37.206Z,23.68
2017-04-29T05:28:37.214Z,23.79
2017-04-29T05:29:36.959Z,23.65
2017-04-29T05:30:37.221Z,23.73
2017-04-29T05:31:36.919Z,23.63
2017-04-29T05:32:37.284Z,23.65
2017-04-29T05:33:37.241Z,23.58
2017-04-29T05:34:36.934Z,23.76
2017-04-29T05:35:37.250Z,23.7
2017-04-29T05:36:36.943Z,23.75
2017-04-29T05:37:36.998Z,23.66
2017-04-29T05:38:37.271Z,23.72
2017-04-29T05:39:36.958Z,23.66
2017-04-29T05:40:37.329Z,23.68
2017-04-29T05:41:37.283Z,23.66
2017-04-29T05:42:36.666Z,23.66
2017-04-29T05:43:37.000Z,23.72
2017-04-29T05:44:37.395Z,23.73
2017-04-29T05:45:37.313Z,23.66
2017-04-29T05:46:37.316Z,23.8
2017-04-29T05:47:37.011Z,23.78
2017-04-29T05:48:37.071Z,23.75
2017-04-29T05:49:37.335Z,23.69
2017-04-29T05:50:36.717Z,23.8
2017-04-29T05:51:37.032Z,23.84
2017-04-29T05:52:37.086Z,23.69
2017-04-29T05:53:37.381Z,23.7
2017-04-29T05:54:37.374Z,23.61
2017-04-29T05:55:37.054Z,23.57
2017-04-29T05:56:37.419Z,23.6
2017-04-29T05:57:37.379Z,23.61
2017-04-29T05:58:37.388Z,23.58
2017-04-29T05:59:37.391Z,23.65
2017-04-29T06:00:37.077Z,23.57
2017-04-29T06:01:36.777Z,23.68
2017-04-29T06:02:36.781Z,23.54
2017-04-29T06:03:37.102Z,23.63
2017-04-29T06:04:37.416Z,23.61
2017-04-29T06:05:37.422Z,23.61
2017-04-29T06:06:37.119Z,23.66
2017-04-29T06:07:37.224Z,23.58
2017-04-29T06:08:37.441Z,23.61
2017-04-29T06:09:37.447Z,23.68
2017-04-29T06:10:37.143Z,23.58
2017-04-29T06:11:37.456Z,23.57
2017-04-29T06:12:37.254Z,23.57
2017-04-29T06:13:37.157Z,23.55
2017-04-29T06:14:37.475Z,23.61
2017-04-29T06:15:37.480Z,23.58
2017-04-29T06:16:37.534Z,23.61
2017-04-29T06:17:37.541Z,23.53
2017-04-29T06:18:37.544Z,23.54
2017-04-29T06:19:37.512Z,23.55
2017-04-29T06:20:37.504Z,23.6
2017-04-29T06:21:37.867Z,23.51
2017-04-29T06:22:37.517Z,23.93
2017-04-29T06:23:37.528Z,25.18
2017-04-29T06:24:37.531Z,26.81
2017-04-29T06:25:37.536Z,28.06
2017-04-29T06:26:37.282Z,28.67
2017-04-29T06:27:37.554Z,28.51
2017-04-29T06:28:37.562Z,29.11
2017-04-29T06:29:38.565Z,29.71
2017-04-29T06:30:37.257Z,30
2017-04-29T06:31:37.627Z,29.97
2017-04-29T06:32:37.586Z,29.98
2017-04-29T06:33:37.591Z,30.08
2017-04-29T06:34:37.600Z,30.2
2017-04-29T06:35:37.610Z,30.42
2017-04-29T06:36:37.662Z,30.45
2017-04-29T06:37:37.390Z,30.51
2017-04-29T06:38:37.318Z,30.55
2017-04-29T06:39:37.328Z,30.58
2017-04-29T06:40:37.651Z,30.7
2017-04-29T06:41:37.033Z,30.8
2017-04-29T06:42:37.358Z,31.12
2017-04-29T06:43:37.669Z,31.35
2017-04-29T06:44:37.676Z,31.23
2017-04-29T06:45:37.422Z,31.23
2017-04-29T06:46:37.417Z,31.21
2017-04-29T06:47:37.392Z,31.44
2017-04-29T06:48:37.702Z,31.38
2017-04-29T06:49:37.719Z,31.54
2017-04-29T06:50:37.734Z,31.53
2017-04-29T06:51:37.738Z,31.7
2017-04-29T06:52:37.756Z,31.84
2017-04-29T06:53:37.757Z,31.72
2017-04-29T06:54:37.818Z,31.76
2017-04-29T06:55:37.779Z,31.85
2017-04-29T06:56:37.792Z,31.86
2017-04-29T06:57:37.794Z,31.89
2017-04-29T06:58:37.805Z,31.96
2017-04-29T06:59:37.860Z,32.03
2017-04-29T07:00:37.821Z,31.95
2017-04-29T07:01:37.933Z,31.92
2017-04-29T07:02:37.581Z,32
2017-04-29T07:03:37.900Z,31.92
2017-04-29T07:04:37.861Z,32
2017-04-29T07:05:37.871Z,32.13
2017-04-29T07:06:37.878Z,32.38
2017-04-29T07:07:37.680Z,32.28
2017-04-29T07:08:37.906Z,32.41
2017-04-29T07:09:37.595Z,32.26
2017-04-29T07:10:37.608Z,31.92
2017-04-29T07:11:37.624Z,31.85
2017-04-29T07:12:37.682Z,31.68
2017-04-29T07:13:37.949Z,30.46
2017-04-29T07:14:37.695Z,28.58
2017-04-29T07:15:37.962Z,27.37
2017-04-29T07:16:37.980Z,26.69
2017-04-29T07:17:37.969Z,26.36
2017-04-29T07:18:37.999Z,26.18
2017-04-29T07:19:37.997Z,25.88
2017-04-29T07:20:38.037Z,25.85
2017-04-29T07:21:38.063Z,25.8
2017-04-29T07:22:37.715Z,25.65
2017-04-29T07:23:38.084Z,25.47
2017-04-29T07:24:38.051Z,25.39
2017-04-29T07:25:37.738Z,25.23
2017-04-29T07:26:38.055Z,25.21
2017-04-29T07:27:38.062Z,25.15
2017-04-29T07:28:37.760Z,25.06
2017-04-29T07:29:37.768Z,25
2017-04-29T07:30:38.090Z,24.96
2017-04-29T07:31:37.527Z,24.87
2017-04-29T07:32:37.792Z,24.83
2017-04-29T07:33:38.163Z,24.67
2017-04-29T07:34:38.163Z,24.52
2017-04-29T07:35:38.122Z,24.47
2017-04-29T07:36:37.817Z,24.35
2017-04-29T07:37:38.139Z,24.24
2017-04-29T07:38:38.143Z,24.13
2017-04-29T07:39:38.154Z,24.08
2017-04-29T07:40:38.210Z,24.08
2017-04-29T07:41:37.858Z,23.93
2017-04-29T07:42:37.865Z,24
2017-04-29T07:43:37.921Z,23.98
2017-04-29T07:44:37.877Z,23.98
2017-04-29T07:45:37.891Z,23.93
2017-04-29T07:46:38.251Z,23.94
2017-04-29T07:47:38.209Z,23.91
2017-04-29T07:48:38.214Z,23.83
2017-04-29T07:49:38.267Z,23.97
2017-04-29T07:50:37.915Z,23.9
2017-04-29T07:51:38.233Z,24.02
2017-04-29T07:52:38.287Z,24.05
2017-04-29T07:53:37.677Z,24.13
2017-04-29T07:54:38.256Z,24.32
2017-04-29T07:55:38.266Z,24.39
2017-04-29T07:56:38.264Z,24.53
2017-04-29T07:57:38.010Z,24.69
2017-04-29T07:58:37.967Z,24.71
2017-04-29T07:59:38.282Z,24.96
2017-04-29T08:00:37.979Z,24.96
2017-04-29T08:01:38.349Z,25.02
2017-04-29T08:02:38.302Z,25.03
2017-04-29T08:03:38.312Z,24.99
2017-04-29T08:04:38.364Z,25.02
2017-04-29T08:05:38.325Z,25
2017-04-29T08:06:38.330Z,25.02
2017-04-29T08:07:38.028Z,25.05
2017-04-29T08:08:38.340Z,24.99
2017-04-29T08:09:38.398Z,25.09
2017-04-29T08:10:38.090Z,24.96
2017-04-29T08:11:38.411Z,25.05
2017-04-29T08:12:38.055Z,25.03
2017-04-29T08:13:38.061Z,24.98
2017-04-29T08:14:38.375Z,24.98
2017-04-29T08:15:38.073Z,25
2017-04-29T08:16:38.086Z,25.02
2017-04-29T08:17:38.084Z,25
2017-04-29T08:18:38.405Z,24.95
2017-04-29T08:19:38.409Z,24.96
2017-04-29T08:20:38.409Z,25.05
2017-04-29T08:21:38.418Z,24.98
2017-04-29T08:22:38.423Z,25
2017-04-29T08:23:38.532Z,24.99
2017-04-29T08:24:38.486Z,25.02
2017-04-29T08:25:38.447Z,25.02
2017-04-29T08:26:38.448Z,25.08
2017-04-29T08:27:38.456Z,25
2017-04-29T08:28:38.510Z,25.02
2017-04-29T08:29:38.467Z,25.05
2017-04-29T08:30:38.470Z,25.02
2017-04-29T08:31:37.854Z,24.9
2017-04-29T08:32:38.488Z,24.98
2017-04-29T08:33:38.492Z,24.85
2017-04-29T08:34:38.541Z,24.96
2017-04-29T08:35:38.504Z,24.91
2017-04-29T08:36:38.513Z,24.87
2017-04-29T08:37:38.199Z,24.85
2017-04-29T08:38:38.261Z,24.84
2017-04-29T08:39:37.905Z,24.84
2017-04-29T08:40:38.610Z,24.87
2017-04-29T08:41:38.228Z,24.87
2017-04-29T08:42:38.549Z,24.85
2017-04-29T08:43:38.551Z,24.9
2017-04-29T08:44:38.556Z,24.83
2017-04-29T08:45:38.569Z,24.9
2017-04-29T08:46:38.260Z,24.85
2017-04-29T08:47:38.578Z,24.83
2017-04-29T08:48:38.628Z,24.81
2017-04-29T08:49:38.592Z,24.73
2017-04-29T08:50:38.641Z,24.84
2017-04-29T08:51:38.287Z,24.87
2017-04-29T08:52:38.695Z,24.85
2017-04-29T08:53:38.610Z,24.81
2017-04-29T08:54:38.678Z,24.71
2017-04-29T08:55:38.360Z,24.67
2017-04-29T08:56:38.679Z,24.77
2017-04-29T08:57:38.322Z,24.67
2017-04-29T08:58:38.074Z,24.65
2017-04-29T08:59:38.647Z,24.6
2017-04-29T09:00:38.651Z,24.57
2017-04-29T09:01:38.655Z,24.55
2017-04-29T09:02:38.112Z,24.47
2017-04-29T09:03:38.672Z,24.49
2017-04-29T09:04:38.365Z,24.46
2017-04-29T09:05:38.683Z,24.47
2017-04-29T09:06:38.737Z,24.46
2017-04-29T09:07:38.699Z,24.47
2017-04-29T09:08:38.444Z,24.5
2017-04-29T09:09:38.086Z,24.55
2017-04-29T09:10:38.711Z,24.47
2017-04-29T09:11:38.715Z,24.57
2017-04-29T09:12:38.732Z,24.65
2017-04-29T09:13:38.735Z,24.69
2017-04-29T09:14:38.429Z,24.67
2017-04-29T09:15:38.743Z,24.76
2017-04-29T09:16:38.447Z,24.84
2017-04-29T09:17:38.756Z,24.9
2017-04-29T09:18:38.762Z,24.69
2017-04-29T09:19:38.771Z,24.73
2017-04-29T09:20:39.126Z,24.9
2017-04-29T09:21:38.211Z,24.76
2017-04-29T09:22:38.783Z,24.85
2017-04-29T09:23:38.803Z,24.83
2017-04-29T09:24:38.801Z,24.91
2017-04-29T09:25:38.812Z,24.81
2017-04-29T09:26:38.500Z,24.85
2017-04-29T09:27:38.817Z,24.85
2017-04-29T09:28:38.827Z,24.84
2017-04-29T09:29:38.577Z,24.84
2017-04-29T09:30:38.886Z,24.85
2017-04-29T09:31:38.533Z,24.68
2017-04-29T09:32:38.543Z,24.77
2017-04-29T09:33:38.860Z,24.71
2017-04-29T09:34:38.910Z,24.64
2017-04-29T09:35:38.605Z,24.52
2017-04-29T09:36:38.878Z,24.5
2017-04-29T09:37:38.882Z,24.43
2017-04-29T09:38:38.625Z,24.35
2017-04-29T09:39:38.582Z,24.32
2017-04-29T09:40:38.913Z,24.45
2017-04-29T09:41:38.904Z,24.43
2017-04-29T09:42:38.912Z,24.32
2017-04-29T09:43:38.973Z,24.3
2017-04-29T09:44:38.922Z,24.3
2017-04-29T09:45:38.925Z,24.31
2017-04-29T09:46:38.982Z,24.35
2017-04-29T09:47:38.943Z,24.37
2017-04-29T09:48:38.948Z,24.32
2017-04-29T09:49:38.955Z,24.34
2017-04-29T09:50:38.647Z,24.39
2017-04-29T09:51:38.653Z,24.37
2017-04-29T09:52:38.713Z,24.35
2017-04-29T09:53:38.974Z,24.37
2017-04-29T09:54:38.987Z,24.34
2017-04-29T09:55:38.729Z,24.27
2017-04-29T09:56:38.378Z,24.35
2017-04-29T09:57:38.691Z,24.5
2017-04-29T09:58:38.745Z,24.35
2017-04-29T09:59:39.117Z,24.3
2017-04-29T10:00:39.073Z,24.4
2017-04-29T10:01:38.710Z,24.37
2017-04-29T10:02:39.036Z,24.37
2017-04-29T10:03:39.099Z,24.37
2017-04-29T10:04:39.051Z,24.34
2017-04-29T10:05:39.103Z,24.42
2017-04-29T10:06:38.434Z,24.42
2017-04-29T10:07:39.064Z,24.34
2017-04-29T10:08:38.755Z,24.39
2017-04-29T10:09:39.081Z,24.52
2017-04-29T10:10:38.814Z,24.42
2017-04-29T10:11:39.090Z,24.5
2017-04-29T10:12:39.101Z,24.47
2017-04-29T10:13:39.102Z,24.53
2017-04-29T10:14:39.107Z,24.52
2017-04-29T10:15:38.845Z,24.64
2017-04-29T10:16:39.114Z,24.69
2017-04-29T10:17:39.127Z,24.62
2017-04-29T10:18:39.131Z,24.71
2017-04-29T10:19:39.131Z,24.83
2017-04-29T10:20:39.137Z,24.8
2017-04-29T10:21:38.832Z,24.85
2017-04-29T10:22:39.186Z,24.78
2017-04-29T10:23:39.156Z,24.76
2017-04-29T10:24:39.163Z,24.65
2017-04-29T10:25:38.857Z,24.76
2017-04-29T10:26:38.868Z,24.77
2017-04-29T10:27:39.182Z,24.68
2017-04-29T10:28:39.188Z,24.73
2017-04-29T10:29:39.247Z,24.76
2017-04-29T10:30:39.200Z,24.65
2017-04-29T10:31:39.203Z,24.76
2017-04-29T10:32:39.212Z,24.69
2017-04-29T10:33:39.218Z,24.67
2017-04-29T10:34:39.273Z,24.65
2017-04-29T10:35:39.227Z,24.62
2017-04-29T10:36:38.924Z,24.67
2017-04-29T10:37:39.294Z,24.62
2017-04-29T10:38:39.296Z,24.57
2017-04-29T10:39:39.355Z,24.55
2017-04-29T10:40:39.267Z,24.5
2017-04-29T10:41:39.315Z,24.46
2017-04-29T10:42:39.329Z,24.49
2017-04-29T10:43:39.309Z,24.45
2017-04-29T10:44:39.284Z,24.4
2017-04-29T10:45:39.291Z,24.31
2017-04-29T10:46:39.294Z,24.21
2017-04-29T10:47:38.995Z,24.25
2017-04-29T10:48:39.309Z,24.28
2017-04-29T10:49:39.316Z,24.3
2017-04-29T10:50:39.371Z,24.32
2017-04-29T10:51:39.020Z,24.42
2017-04-29T10:52:39.334Z,24.31
2017-04-29T10:53:39.442Z,24.32
2017-04-29T10:54:39.347Z,24.42
2017-04-29T10:55:39.041Z,24.3
2017-04-29T10:56:39.460Z,24.37
2017-04-29T10:57:39.713Z,24.45
2017-04-29T10:58:39.060Z,24.53
2017-04-29T10:59:39.115Z,24.55
2017-04-29T11:00:39.071Z,24.5
2017-04-29T11:01:39.488Z,24.49
2017-04-29T11:02:39.449Z,24.47
2017-04-29T11:03:39.151Z,24.53
2017-04-29T11:04:39.452Z,24.62
2017-04-29T11:05:39.097Z,24.53
2017-04-29T11:06:39.415Z,24.61
2017-04-29T11:07:39.420Z,24.68
2017-04-29T11:08:39.426Z,24.67
2017-04-29T11:09:39.436Z,24.67
2017-04-29T11:10:39.437Z,24.69
2017-04-29T11:11:39.139Z,24.88
2017-04-29T11:12:39.450Z,24.84
2017-04-29T11:13:39.146Z,24.96
2017-04-29T11:14:39.468Z,24.85
2017-04-29T11:15:39.470Z,24.88
2017-04-29T11:16:39.525Z,24.88
2017-04-29T11:17:39.482Z,24.87
2017-04-29T11:18:39.177Z,24.87
2017-04-29T11:19:39.283Z,24.69
2017-04-29T11:20:39.557Z,24.87
2017-04-29T11:21:39.193Z,24.77
2017-04-29T11:22:39.205Z,24.85
2017-04-29T11:23:39.211Z,24.85
2017-04-29T11:24:39.267Z,24.76
2017-04-29T11:25:39.532Z,24.73
2017-04-29T11:26:39.536Z,24.71
2017-04-29T11:27:39.544Z,24.71
2017-04-29T11:28:39.292Z,24.53
2017-04-29T11:29:39.245Z,24.57
2017-04-29T11:30:39.255Z,24.53
2017-04-29T11:31:39.567Z,24.5
2017-04-29T11:32:39.264Z,24.53
2017-04-29T11:33:39.269Z,24.55
2017-04-29T11:34:39.593Z,24.53
2017-04-29T11:35:39.595Z,24.69
2017-04-29T11:36:39.601Z,24.58
2017-04-29T11:37:39.609Z,24.8
2017-04-29T11:38:39.612Z,24.67
2017-04-29T11:39:39.621Z,24.52
2017-04-29T11:40:39.681Z,24.64
2017-04-29T11:41:39.631Z,24.64
2017-04-29T11:42:39.639Z,24.68
2017-04-29T11:43:39.698Z,24.76
2017-04-29T11:44:39.391Z,24.69
2017-04-29T11:45:39.704Z,24.71
2017-04-29T11:46:39.453Z,24.65
2017-04-29T11:47:39.671Z,24.53
2017-04-29T11:48:39.364Z,24.67
2017-04-29T11:49:39.682Z,24.68
2017-04-29T11:50:39.688Z,24.68
2017-04-29T11:51:39.745Z,24.81
2017-04-29T11:52:39.697Z,24.83
2017-04-29T11:53:39.709Z,24.88
2017-04-29T11:54:39.713Z,24.85
2017-04-29T11:55:39.728Z,24.84
2017-04-29T11:56:39.825Z,24.8
2017-04-29T11:57:39.425Z,24.85
2017-04-29T11:58:39.740Z,24.93
2017-04-29T11:59:39.742Z,24.81
2017-04-29T12:00:39.750Z,25
2017-04-29T12:01:39.755Z,24.95
2017-04-29T12:02:39.868Z,24.87
2017-04-29T12:03:39.458Z,24.84
2017-04-29T12:04:39.773Z,24.83
2017-04-29T12:05:39.468Z,24.93
2017-04-29T12:06:39.787Z,24.85
2017-04-29T12:07:39.844Z,24.78
2017-04-29T12:08:39.810Z,24.69
2017-04-29T12:09:39.495Z,24.85
2017-04-29T12:10:39.809Z,24.87
2017-04-29T12:11:39.818Z,24.8
2017-04-29T12:12:39.875Z,24.77
2017-04-29T12:13:39.556Z,24.81
2017-04-29T12:14:39.833Z,24.73
2017-04-29T12:15:39.843Z,24.68
2017-04-29T12:16:39.851Z,24.64
2017-04-29T12:17:39.903Z,24.76
2017-04-29T12:18:39.870Z,24.68
2017-04-29T12:19:39.556Z,24.81
2017-04-29T12:20:39.872Z,24.77
2017-04-29T12:21:39.878Z,24.68
2017-04-29T12:22:39.938Z,24.77
2017-04-29T12:23:39.924Z,24.73
2017-04-29T12:24:39.275Z,24.64
2017-04-29T12:25:39.903Z,24.62
2017-04-29T12:26:39.912Z,24.6
2017-04-29T12:27:39.966Z,24.67
2017-04-29T12:28:39.924Z,24.65
2017-04-29T12:29:39.619Z,24.71
2017-04-29T12:30:39.672Z,24.65
2017-04-29T12:31:39.992Z,24.61
2017-04-29T12:32:39.947Z,24.55
2017-04-29T12:33:39.954Z,24.53
2017-04-29T12:34:40.020Z,24.55
2017-04-29T12:35:39.967Z,24.47
2017-04-29T12:36:39.970Z,24.42
2017-04-29T12:37:39.981Z,24.42
2017-04-29T12:38:39.994Z,24.32
2017-04-29T12:39:40.080Z,24.37
2017-04-29T12:40:40.097Z,24.5
2017-04-29T12:41:39.794Z,24.4
2017-04-29T12:42:40.016Z,24.46
2017-04-29T12:43:40.020Z,24.47
2017-04-29T12:44:40.123Z,24.5
2017-04-29T12:45:39.719Z,24.53
2017-04-29T12:46:40.032Z,24.57
2017-04-29T12:47:40.080Z,24.5
2017-04-29T12:48:39.427Z,24.52
2017-04-29T12:49:40.088Z,24.47
2017-04-29T12:50:40.060Z,24.52
2017-04-29T12:51:39.448Z,24.68
2017-04-29T12:52:40.078Z,24.62
2017-04-29T12:53:40.129Z,24.61
2017-04-29T12:54:39.826Z,24.61
2017-04-29T12:55:39.781Z,24.57
2017-04-29T12:56:40.095Z,24.58